Aeroporto :
LOGIN :

Iscrizione | Disclaimer

   EN    FR    IT 

 










Sommario :    VFR   VFR Marginale   IFR   IFR Intensivo   IFR Molto Intensivo
Visibilità : 
Base nubi : 
>= 8 km
>= 3000ft
5 / 8 km
1000 / 3000 ft
1500m / 5 km
500 / 1000 ft
800 / 1500m
200 / 500 ft
< 800m
< 200 ft
Simboli :   Temporali  Nebbia  Neve Forte  Precipitazioni Forti  Vento > 20 kt
SIGMETs :   Varie  Temporali  Ghiacco  Turbolenza  Onda orograficha  Ceneri Vulcaniche







- Altitudine del aeroporto : 270 ft
- Codice IATA : OXF
- Carte del aeroporto


EGTK - Oxford (Kidlington)

ULTIMO METAR :
  • 160920Z 21009KT 7000 SCT011 BKN026 10/09 Q1022

METARs OBSOLETI :
  • 160850Z 20006KT 7000 SCT010 BKN012 10/09 Q1022
  • 160820Z 17005KT 6000 SCT010 BKN029 09/08 Q1021
  • 160750Z 19008KT 9999 SCT010 BKN024 09/08 Q1021
  • 160720Z 21007KT 6000 FEW009 BKN027 09/08 Q1021
  • 160650Z 20008KT 7000 BKN025 09/08 Q1021

TAF AMD TAF EGTK
Valido dal 16 a 09 ore il 16 a 18 ore UTC


160921Z 1609/1618 21008KT 7000 SCT009 BKN020
BECMG 1609/1612 9999
PROB30
TEMPO 1609/1612 BKN009
BECMG 1612/1615 BKN010
PROB40
TEMPO 1615/1618 3000 BR BKN003
Nessun NOTAM noto per questo aeroporto.



MetMap, La meteo Aeronautica in un colpo d'occhio ! - Copyright ORBIFLY Dicembre 2007 - Disclaimer

ORBIFLY MET'MAP TEAM :

Programmazione e sviluppo : Alexandra Zaïnal
Concezione e sviluppo : Baudouin d'Aumeries
Co-Programmazione e sviluppo : Marc-Olivier Méhu
Supporto tecnico e logistico : Manuel Goepfert
Aiuto per la traduzione : Arnaldo La Scala

Contatto : metmap@orbifly.com




FONTI E CREDITI :

   NOAA